Time;durP1;ratioP1;P1;durP2;ratioP2;P2;SDS_P1;SDS_P2;PMS_P1;PMS_P2;Temp;Humidity;BMP_temperature;BMP_pressure;BME280_temperature;BME280_humidity;BME280_pressure;Samples;Min_cycle;Max_cycle;Signal;HPM_P1;HPM_P2
2023/11/20 00:02:00;;;;;;;28.73;18.57;;;9.80;99.90;;;;;;493980;241;27942;-72
2023/11/20 00:04:02;;;;;;;38.83;24.27;;;9.80;99.90;;;;;;493958;239;27969;-73
2023/11/20 00:06:03;;;;;;;22.87;9.13;;;9.80;99.90;;;;;;493994;241;28246;-73
2023/11/20 00:08:04;;;;;;;26.50;12.33;;;9.80;99.90;;;;;;494027;241;28058;-72
2023/11/20 00:10:05;;;;;;;31.70;21.07;;;9.80;99.90;;;;;;494142;241;28575;-72
2023/11/20 00:12:07;;;;;;;23.53;15.87;;;9.90;99.90;;;;;;494040;237;28395;-72
2023/11/20 00:14:08;;;;;;;21.63;10.20;;;9.90;99.90;;;;;;494100;241;28394;-72
2023/11/20 00:16:09;;;;;;;17.37;8.47;;;9.90;99.90;;;;;;494109;241;27972;-73
2023/11/20 00:18:11;;;;;;;23.70;6.60;;;9.90;99.90;;;;;;494142;237;27947;-73
2023/11/20 00:20:12;;;;;;;14.93;6.43;;;9.90;99.90;;;;;;494029;241;27856;-73
2023/11/20 00:22:13;;;;;;;15.63;4.23;;;9.90;99.90;;;;;;494063;241;28098;-72
2023/11/20 00:24:14;;;;;;;24.73;4.50;;;9.90;99.90;;;;;;493994;241;27961;-72
2023/11/20 00:26:15;;;;;;;18.97;4.17;;;9.80;99.90;;;;;;494024;241;28119;-72
2023/11/20 00:28:17;;;;;;;28.83;5.33;;;9.90;99.90;;;;;;494085;241;28144;-72
2023/11/20 00:30:18;;;;;;;12.27;3.30;;;9.90;99.90;;;;;;494100;241;27948;-72
2023/11/20 00:32:19;;;;;;;14.90;3.67;;;9.90;99.90;;;;;;494105;241;28749;-73
2023/11/20 00:34:21;;;;;;;13.40;3.63;;;9.90;99.90;;;;;;494015;241;28267;-72
2023/11/20 00:36:22;;;;;;;14.67;4.00;;;9.90;99.90;;;;;;494119;241;28555;-72
2023/11/20 00:38:23;;;;;;;21.57;4.37;;;9.90;99.90;;;;;;494050;241;28375;-72
2023/11/20 00:40:24;;;;;;;21.93;4.07;;;9.80;99.90;;;;;;494052;241;27851;-72
2023/11/20 00:42:26;;;;;;;26.30;3.83;;;9.90;99.90;;;;;;494069;241;28073;-75
2023/11/20 00:44:27;;;;;;;19.50;4.00;;;9.90;99.90;;;;;;494036;241;27642;-72
2023/11/20 00:46:28;;;;;;;15.57;3.50;;;9.90;99.90;;;;;;494032;241;27966;-72
2023/11/20 00:48:31;;;;;;;23.40;4.87;;;9.90;99.90;;;;;;494062;241;28037;-72
2023/11/20 00:50:31;;;;;;;15.33;3.93;;;9.90;99.90;;;;;;493979;241;27964;-72
2023/11/20 00:52:34;;;;;;;14.80;3.20;;;9.90;99.90;;;;;;494077;241;27853;-72
2023/11/20 00:54:33;;;;;;;15.93;3.17;;;9.90;99.90;;;;;;493978;241;28047;-72
2023/11/20 00:56:34;;;;;;;24.37;3.63;;;9.90;99.90;;;;;;494056;241;27926;-72
2023/11/20 00:58:36;;;;;;;18.90;3.50;;;9.90;99.90;;;;;;494033;241;28268;-72
2023/11/20 01:00:37;;;;;;;20.37;3.30;;;9.90;99.90;;;;;;494049;241;28461;-72
2023/11/20 01:02:38;;;;;;;12.83;2.83;;;9.90;99.90;;;;;;494052;241;28356;-73
2023/11/20 01:04:40;;;;;;;16.87;4.07;;;9.90;99.90;;;;;;494114;241;27636;-73
2023/11/20 01:06:41;;;;;;;10.73;3.20;;;9.90;99.90;;;;;;494123;241;28013;-72
2023/11/20 01:08:42;;;;;;;18.13;3.73;;;9.90;99.90;;;;;;494140;241;28062;-73
2023/11/20 01:10:43;;;;;;;32.90;18.10;;;9.90;99.90;;;;;;494070;241;28041;-72
2023/11/20 01:12:44;;;;;;;35.07;21.83;;;9.90;99.90;;;;;;494119;241;28114;-73
2023/11/20 01:14:46;;;;;;;30.43;16.23;;;9.90;99.90;;;;;;494060;241;27654;-73
2023/11/20 01:16:47;;;;;;;29.43;16.13;;;9.90;99.90;;;;;;494017;241;27591;-72
2023/11/20 01:18:50;;;;;;;24.57;9.10;;;9.90;99.90;;;;;;494027;241;28258;-73
2023/11/20 01:20:49;;;;;;;25.03;11.90;;;9.90;99.90;;;;;;493876;241;28340;-72
2023/11/20 01:22:51;;;;;;;17.43;6.97;;;9.90;99.90;;;;;;494012;241;28471;-73
2023/11/20 01:24:52;;;;;;;24.37;13.27;;;9.90;99.90;;;;;;494040;241;28426;-72
2023/11/20 01:26:56;;;;;;;29.50;16.67;;;9.90;99.90;;;;;;494046;241;28115;-73
2023/11/20 01:28:56;;;;;;;24.60;9.50;;;9.90;99.90;;;;;;493828;241;27933;-74
2023/11/20 01:30:56;;;;;;;19.77;6.60;;;9.90;99.90;;;;;;494059;241;28076;-72
2023/11/20 01:32:57;;;;;;;19.73;4.60;;;9.90;99.90;;;;;;494123;241;27642;-73
2023/11/20 01:34:58;;;;;;;17.93;4.80;;;9.90;99.90;;;;;;494100;241;28088;-73
2023/11/20 01:36:59;;;;;;;26.13;5.40;;;9.90;99.90;;;;;;494089;241;28031;-72
2023/11/20 01:39:01;;;;;;;11.57;4.27;;;9.80;99.90;;;;;;494151;241;27984;-73
2023/11/20 01:41:02;;;;;;;16.03;3.80;;;9.80;99.90;;;;;;494082;241;27892;-72
2023/11/20 01:43:03;;;;;;;15.13;4.30;;;9.90;99.90;;;;;;494007;241;28192;-72
2023/11/20 01:45:07;;;;;;;25.20;4.73;;;9.90;99.90;;;;;;494037;241;28084;-74
2023/11/20 01:47:06;;;;;;;16.27;3.57;;;9.90;99.90;;;;;;493864;241;28671;-72
2023/11/20 01:49:07;;;;;;;12.83;3.47;;;9.80;99.90;;;;;;494118;239;28159;-73
2023/11/20 01:51:08;;;;;;;15.20;3.20;;;9.80;99.90;;;;;;494110;241;27916;-72
2023/11/20 01:53:09;;;;;;;25.03;3.97;;;9.80;99.90;;;;;;494132;241;27705;-72
2023/11/20 01:55:11;;;;;;;21.43;3.70;;;9.70;99.90;;;;;;494118;241;28054;-72
2023/11/20 01:57:12;;;;;;;11.67;3.13;;;9.70;99.90;;;;;;494089;241;27586;-72
2023/11/20 01:59:13;;;;;;;19.93;3.50;;;9.60;99.90;;;;;;494105;241;27852;-73
2023/11/20 02:01:14;;;;;;;24.80;4.40;;;9.70;99.90;;;;;;494112;241;27989;-72
2023/11/20 02:03:16;;;;;;;15.03;4.00;;;9.60;99.90;;;;;;494119;241;27646;-73
2023/11/20 02:05:17;;;;;;;13.53;3.20;;;9.60;99.90;;;;;;494093;241;27977;-73
2023/11/20 02:07:18;;;;;;;13.87;3.63;;;9.60;99.90;;;;;;494104;241;28433;-73
2023/11/20 02:09:19;;;;;;;12.13;3.43;;;9.60;99.90;;;;;;494076;241;28336;-73
2023/11/20 02:11:21;;;;;;;18.70;4.30;;;9.60;99.90;;;;;;494023;241;28194;-73
2023/11/20 02:13:22;;;;;;;19.63;6.57;;;9.50;99.90;;;;;;494030;241;28059;-73
2023/11/20 02:15:23;;;;;;;28.93;12.53;;;9.50;99.90;;;;;;494032;241;27887;-73
2023/11/20 02:17:24;;;;;;;25.30;13.20;;;9.50;99.90;;;;;;494022;241;27951;-72
2023/11/20 02:19:26;;;;;;;26.27;15.30;;;9.50;99.90;;;;;;494018;241;28161;-72
2023/11/20 02:21:27;;;;;;;25.63;15.87;;;9.50;99.90;;;;;;494034;241;27864;-72
2023/11/20 02:23:28;;;;;;;23.93;10.10;;;9.50;99.90;;;;;;494025;241;27817;-72
2023/11/20 02:25:29;;;;;;;18.53;14.93;;;9.50;99.90;;;;;;494026;241;28085;-72
2023/11/20 02:27:32;;;;;;;20.60;6.20;;;9.40;99.90;;;;;;494024;241;29206;-72
2023/11/20 02:29:32;;;;;;;28.10;9.10;;;9.40;99.90;;;;;;493910;241;28291;-72
2023/11/20 02:31:33;;;;;;;14.73;6.20;;;9.40;99.90;;;;;;493972;241;28105;-74
2023/11/20 02:33:35;;;;;;;15.10;6.40;;;9.40;99.90;;;;;;494042;241;27809;-72
2023/11/20 02:35:36;;;;;;;20.70;10.47;;;9.40;99.90;;;;;;493993;241;27628;-73
2023/11/20 02:37:37;;;;;;;18.83;4.70;;;9.40;99.90;;;;;;494013;241;28066;-73
2023/11/20 02:39:38;;;;;;;19.43;4.40;;;9.40;99.90;;;;;;494037;241;27846;-73
2023/11/20 02:41:40;;;;;;;21.67;3.50;;;9.50;99.90;;;;;;494026;241;28116;-73
2023/11/20 02:43:41;;;;;;;11.60;3.23;;;9.40;99.90;;;;;;493839;241;27900;-72
2023/11/20 02:45:42;;;;;;;14.63;3.37;;;9.50;99.90;;;;;;493989;241;27873;-72
2023/11/20 02:47:43;;;;;;;22.50;4.00;;;9.50;99.90;;;;;;494038;241;27952;-74
2023/11/20 02:49:44;;;;;;;12.97;3.20;;;9.50;99.90;;;;;;494135;241;27829;-72
2023/11/20 02:51:46;;;;;;;18.07;4.70;;;9.50;99.90;;;;;;494140;241;28415;-73
2023/11/20 02:53:47;;;;;;;22.27;4.20;;;9.50;99.90;;;;;;494091;241;28239;-72
2023/11/20 02:55:50;;;;;;;16.70;3.23;;;9.50;99.90;;;;;;494090;241;28440;-72
2023/11/20 02:57:49;;;;;;;18.80;3.17;;;9.40;99.90;;;;;;493885;241;28053;-73
2023/11/20 02:59:51;;;;;;;19.67;4.60;;;9.50;99.90;;;;;;494129;241;27825;-72
2023/11/20 03:01:52;;;;;;;22.03;3.17;;;9.40;99.90;;;;;;494115;241;27969;-73
2023/11/20 03:03:53;;;;;;;17.60;3.80;;;9.50;99.90;;;;;;494087;241;27828;-72
2023/11/20 03:05:54;;;;;;;16.47;3.40;;;9.50;99.90;;;;;;494032;241;28069;-72
2023/11/20 03:07:56;;;;;;;17.33;3.77;;;9.50;99.90;;;;;;493981;241;28153;-72
2023/11/20 03:09:57;;;;;;;7.10;2.70;;;9.50;99.90;;;;;;494093;241;27972;-72
2023/11/20 03:11:58;;;;;;;12.37;3.17;;;9.50;99.90;;;;;;494037;241;28005;-72
2023/11/20 03:13:59;;;;;;;21.13;4.40;;;9.50;99.90;;;;;;494040;241;28182;-73
2023/11/20 03:16:01;;;;;;;13.30;3.00;;;9.50;99.90;;;;;;494035;241;28472;-72
2023/11/20 03:18:02;;;;;;;14.40;3.63;;;9.50;99.90;;;;;;494031;241;29656;-73
2023/11/20 03:20:03;;;;;;;9.77;3.00;;;9.50;99.90;;;;;;494047;241;28272;-72
2023/11/20 03:22:04;;;;;;;17.27;4.20;;;9.50;99.90;;;;;;494040;241;28548;-72
2023/11/20 03:24:06;;;;;;;13.97;3.23;;;9.50;99.90;;;;;;494044;241;27982;-73
2023/11/20 03:26:07;;;;;;;13.97;3.50;;;9.50;99.90;;;;;;494118;241;27922;-72
2023/11/20 03:28:08;;;;;;;17.47;3.23;;;9.50;99.90;;;;;;494133;241;28068;-73
2023/11/20 03:30:10;;;;;;;13.17;3.73;;;9.50;99.90;;;;;;494031;241;28060;-72
2023/11/20 03:32:11;;;;;;;9.53;2.90;;;9.50;99.90;;;;;;494059;241;27964;-73
2023/11/20 03:34:12;;;;;;;16.43;3.97;;;9.50;99.90;;;;;;494037;241;27830;-73
2023/11/20 03:36:13;;;;;;;17.37;3.60;;;9.60;99.90;;;;;;494043;241;28031;-72
2023/11/20 03:38:14;;;;;;;12.07;3.77;;;9.60;99.90;;;;;;494044;241;27844;-72
2023/11/20 03:40:16;;;;;;;21.73;4.17;;;9.50;99.90;;;;;;494021;241;27703;-72
2023/11/20 03:42:17;;;;;;;14.03;3.47;;;9.50;99.90;;;;;;494121;241;28002;-72
2023/11/20 03:44:18;;;;;;;16.43;3.10;;;9.50;99.90;;;;;;494111;237;28320;-72
2023/11/20 03:46:19;;;;;;;10.83;3.40;;;9.50;99.90;;;;;;494049;241;28394;-72
2023/11/20 03:48:21;;;;;;;15.47;4.03;;;9.50;99.90;;;;;;494056;241;28050;-72
2023/11/20 03:50:22;;;;;;;16.53;3.70;;;9.50;99.90;;;;;;494028;241;28076;-73
2023/11/20 03:52:23;;;;;;;22.03;3.80;;;9.60;99.90;;;;;;494018;241;27774;-72
2023/11/20 03:54:24;;;;;;;13.90;3.20;;;9.50;99.90;;;;;;494004;241;27967;-73
2023/11/20 03:56:26;;;;;;;13.23;3.60;;;9.60;99.90;;;;;;494002;241;27924;-72
2023/11/20 03:58:27;;;;;;;17.27;4.00;;;9.50;99.90;;;;;;494053;241;28060;-72
2023/11/20 04:00:29;;;;;;;15.97;3.67;;;9.50;99.90;;;;;;494019;241;27638;-73
2023/11/20 04:02:29;;;;;;;13.80;3.17;;;9.50;99.90;;;;;;494051;237;27922;-72
2023/11/20 04:04:31;;;;;;;9.83;3.03;;;9.50;99.90;;;;;;494156;241;27841;-72
2023/11/20 04:06:32;;;;;;;13.63;3.73;;;9.60;99.90;;;;;;494105;241;27825;-72
2023/11/20 04:08:33;;;;;;;18.27;4.00;;;9.50;99.90;;;;;;493811;241;28271;-73
2023/11/20 04:10:35;;;;;;;17.27;4.00;;;9.60;99.90;;;;;;494042;241;28436;-72
2023/11/20 04:12:36;;;;;;;15.80;3.50;;;9.50;99.90;;;;;;494060;241;28117;-72
2023/11/20 04:14:37;;;;;;;12.10;2.70;;;9.50;99.90;;;;;;494042;241;27898;-72
2023/11/20 04:16:38;;;;;;;15.17;3.13;;;9.60;99.90;;;;;;494044;241;27968;-72
2023/11/20 04:18:39;;;;;;;20.23;3.50;;;9.60;99.90;;;;;;494065;241;28121;-72
2023/11/20 04:20:41;;;;;;;13.37;2.70;;;9.60;99.90;;;;;;494130;241;28005;-72
2023/11/20 04:22:42;;;;;;;16.80;3.27;;;9.50;99.90;;;;;;494042;241;27804;-72
2023/11/20 04:24:43;;;;;;;13.33;2.87;;;9.50;99.90;;;;;;494011;241;27742;-72
2023/11/20 04:26:45;;;;;;;19.63;3.00;;;9.50;99.90;;;;;;494140;237;28497;-74
2023/11/20 04:28:47;;;;;;;19.03;7.20;;;9.50;99.90;;;;;;494106;241;28021;-73
2023/11/20 04:30:47;;;;;;;11.00;3.40;;;9.50;99.90;;;;;;493978;241;28001;-73
2023/11/20 04:32:48;;;;;;;11.90;3.00;;;9.50;99.90;;;;;;494002;241;28496;-73
2023/11/20 04:34:50;;;;;;;20.83;3.00;;;9.40;99.90;;;;;;494025;241;28500;-72
2023/11/20 04:36:51;;;;;;;9.57;3.03;;;9.40;99.90;;;;;;494025;241;28557;-73
2023/11/20 04:38:52;;;;;;;15.27;2.90;;;9.40;99.90;;;;;;494105;237;28305;-73
2023/11/20 04:40:54;;;;;;;19.23;3.57;;;9.40;99.90;;;;;;494109;241;27990;-73
2023/11/20 04:42:55;;;;;;;12.53;2.80;;;9.30;99.90;;;;;;494126;237;27714;-72
2023/11/20 04:44:56;;;;;;;12.13;2.70;;;9.40;99.90;;;;;;494050;241;28079;-72
2023/11/20 04:46:57;;;;;;;16.80;3.37;;;9.40;99.90;;;;;;494022;241;28128;-73
2023/11/20 04:48:58;;;;;;;10.40;2.53;;;9.40;99.90;;;;;;494045;241;28076;-73
2023/11/20 04:51:00;;;;;;;15.07;3.33;;;9.40;99.90;;;;;;494053;237;27978;-72
2023/11/20 04:53:01;;;;;;;15.57;2.90;;;9.30;99.90;;;;;;494036;241;28339;-74
2023/11/20 04:55:03;;;;;;;18.03;3.40;;;9.40;99.90;;;;;;493996;241;28050;-72
2023/11/20 04:57:03;;;;;;;12.23;2.77;;;9.30;99.90;;;;;;493936;241;27966;-73
2023/11/20 04:59:05;;;;;;;13.93;3.43;;;9.30;99.90;;;;;;494058;241;28180;-72
2023/11/20 05:01:06;;;;;;;10.27;3.23;;;9.30;99.90;;;;;;494050;241;28357;-72
2023/11/20 05:03:08;;;;;;;12.63;2.77;;;9.30;99.90;;;;;;494123;241;28263;-73
2023/11/20 05:05:08;;;;;;;13.37;2.50;;;9.30;99.90;;;;;;493979;241;27485;-72
2023/11/20 05:07:10;;;;;;;9.50;2.40;;;9.20;99.90;;;;;;494000;241;27862;-73
2023/11/20 05:09:11;;;;;;;11.03;2.13;;;9.20;99.90;;;;;;494021;241;27938;-73
2023/11/20 05:11:13;;;;;;;8.43;3.10;;;9.20;99.90;;;;;;494028;241;27840;-72
2023/11/20 05:13:17;;;;;;;14.83;4.10;;;9.20;99.90;;;;;;494013;241;28130;-74
2023/11/20 05:15:15;;;;;;;10.77;3.40;;;9.20;99.90;;;;;;493887;241;27814;-72
2023/11/20 05:17:18;;;;;;;9.70;5.10;;;9.20;99.90;;;;;;494018;241;27982;-72
2023/11/20 05:19:17;;;;;;;15.90;4.70;;;9.20;99.90;;;;;;493879;241;27972;-72
2023/11/20 05:21:18;;;;;;;13.20;4.57;;;9.10;99.90;;;;;;494124;241;27944;-73
2023/11/20 05:23:20;;;;;;;17.20;3.50;;;9.10;99.90;;;;;;494113;241;28056;-73
2023/11/20 05:25:21;;;;;;;14.00;2.90;;;9.10;99.90;;;;;;494114;241;28602;-72
2023/11/20 05:27:22;;;;;;;13.23;2.70;;;9.10;99.90;;;;;;493987;237;28532;-72
2023/11/20 05:29:23;;;;;;;10.13;2.30;;;9.10;99.90;;;;;;493872;241;28549;-73
2023/11/20 05:31:25;;;;;;;11.27;2.50;;;9.10;99.90;;;;;;493986;241;27947;-72
2023/11/20 05:33:26;;;;;;;13.27;2.50;;;9.00;99.90;;;;;;493959;241;28014;-73
2023/11/20 05:35:27;;;;;;;12.87;2.40;;;9.00;99.90;;;;;;493905;241;27945;-72
2023/11/20 05:37:29;;;;;;;17.00;2.70;;;9.00;99.90;;;;;;494073;241;27704;-72
2023/11/20 05:39:30;;;;;;;14.40;3.00;;;9.00;99.90;;;;;;494037;241;27760;-74
2023/11/20 05:41:31;;;;;;;9.90;2.17;;;9.00;99.90;;;;;;494065;241;27937;-73
2023/11/20 05:43:32;;;;;;;19.83;3.67;;;9.00;99.90;;;;;;493966;241;27935;-73
2023/11/20 05:45:34;;;;;;;8.37;2.87;;;8.90;99.90;;;;;;493897;241;27945;-73
2023/11/20 05:47:35;;;;;;;4.90;2.20;;;9.00;99.90;;;;;;493996;241;27526;-72
2023/11/20 05:49:36;;;;;;;11.57;2.23;;;8.90;99.90;;;;;;494087;241;27895;-73
2023/11/20 05:51:37;;;;;;;10.03;2.53;;;8.90;99.90;;;;;;494039;237;28246;-72
2023/11/20 05:53:38;;;;;;;10.67;2.10;;;8.90;99.90;;;;;;494028;241;28331;-74
2023/11/20 05:55:40;;;;;;;6.83;2.60;;;8.90;99.90;;;;;;494146;241;30159;-72
2023/11/20 05:57:41;;;;;;;10.10;2.30;;;8.90;99.90;;;;;;494138;241;28563;-72
2023/11/20 05:59:42;;;;;;;11.20;2.33;;;8.90;99.90;;;;;;494077;241;27605;-73
2023/11/20 06:01:43;;;;;;;13.33;2.40;;;8.90;99.90;;;;;;494097;241;27809;-72
2023/11/20 06:03:45;;;;;;;6.67;2.40;;;8.90;99.90;;;;;;494052;241;27947;-73
2023/11/20 06:05:46;;;;;;;14.00;2.80;;;8.80;99.90;;;;;;494123;241;28069;-73
2023/11/20 06:07:47;;;;;;;10.33;2.70;;;8.90;99.90;;;;;;494166;241;27952;-72
2023/11/20 06:09:48;;;;;;;11.37;2.87;;;8.80;99.90;;;;;;494158;241;28131;-72
2023/11/20 06:11:50;;;;;;;8.80;2.20;;;8.80;99.90;;;;;;494140;241;27901;-72
2023/11/20 06:13:51;;;;;;;12.27;2.73;;;8.80;99.90;;;;;;494118;241;27976;-72
2023/11/20 06:15:52;;;;;;;14.43;3.90;;;8.80;99.90;;;;;;494139;241;28016;-74
2023/11/20 06:17:53;;;;;;;26.37;3.57;;;8.80;99.90;;;;;;494122;241;27588;-72
2023/11/20 06:19:55;;;;;;;7.70;2.20;;;8.90;99.90;;;;;;494157;241;28491;-72
2023/11/20 06:21:56;;;;;;;5.63;2.03;;;8.80;99.90;;;;;;493994;241;29248;-72
2023/11/20 06:23:57;;;;;;;7.60;2.03;;;8.80;99.90;;;;;;494037;241;28307;-72
2023/11/20 06:25:58;;;;;;;8.47;2.70;;;8.80;99.90;;;;;;494063;241;28365;-73
2023/11/20 06:28:00;;;;;;;11.83;2.30;;;8.80;99.90;;;;;;494129;241;27825;-72
2023/11/20 06:30:01;;;;;;;7.67;2.57;;;8.80;99.90;;;;;;494094;241;27937;-72
2023/11/20 06:32:02;;;;;;;9.33;2.53;;;8.80;99.90;;;;;;494035;241;27848;-75
2023/11/20 06:34:06;;;;;;;7.70;2.90;;;8.80;99.90;;;;;;494051;241;27588;-72
2023/11/20 06:36:08;;;;;;;7.20;2.20;;;8.80;99.90;;;;;;494008;241;27946;-72
2023/11/20 06:38:09;;;;;;;11.30;3.70;;;8.80;99.90;;;;;;494022;241;27996;-73
2023/11/20 06:40:10;;;;;;;9.93;3.37;;;8.80;99.90;;;;;;494014;241;27931;-72
2023/11/20 06:42:12;;;;;;;14.60;4.70;;;8.80;99.90;;;;;;494010;241;27936;-72
2023/11/20 06:44:13;;;;;;;11.03;3.10;;;8.80;99.90;;;;;;494033;237;28087;-72
2023/11/20 06:46:14;;;;;;;11.40;4.30;;;8.70;99.90;;;;;;494014;241;28008;-72
2023/11/20 06:48:15;;;;;;;13.53;5.83;;;8.70;99.90;;;;;;494015;241;27936;-72
2023/11/20 06:50:16;;;;;;;25.73;15.07;;;8.70;99.90;;;;;;493975;241;27957;-72
2023/11/20 06:52:18;;;;;;;9.03;2.90;;;8.70;99.90;;;;;;494029;241;28662;-73
2023/11/20 06:54:19;;;;;;;9.93;5.00;;;8.70;99.90;;;;;;494055;241;28344;-73
2023/11/20 06:56:21;;;;;;;23.43;11.80;;;8.70;99.90;;;;;;493983;241;28470;-72
2023/11/20 06:58:21;;;;;;;32.10;25.40;;;8.70;99.90;;;;;;493999;241;27742;-72
2023/11/20 07:00:23;;;;;;;15.47;9.17;;;8.70;99.90;;;;;;494022;241;27670;-73
2023/11/20 07:02:25;;;;;;;14.53;6.60;;;8.70;99.90;;;;;;494042;241;27754;-72
2023/11/20 07:04:25;;;;;;;14.87;4.73;;;8.70;99.90;;;;;;493999;241;27936;-73
2023/11/20 07:06:26;;;;;;;9.97;4.00;;;8.70;99.90;;;;;;494106;241;28108;-73
2023/11/20 07:08:28;;;;;;;15.90;3.27;;;8.70;99.90;;;;;;493999;241;27988;-72
2023/11/20 07:10:29;;;;;;;9.27;2.80;;;8.70;99.90;;;;;;494087;240;27714;-73
2023/11/20 07:12:30;;;;;;;6.37;2.43;;;8.60;99.90;;;;;;494091;241;27778;-72
2023/11/20 07:14:31;;;;;;;15.27;3.70;;;8.60;99.90;;;;;;494079;241;28043;-73
2023/11/20 07:16:33;;;;;;;12.73;3.73;;;8.60;99.90;;;;;;494060;241;27888;-72
2023/11/20 07:18:34;;;;;;;10.83;2.20;;;8.70;99.90;;;;;;494103;241;28536;-72
2023/11/20 07:20:35;;;;;;;6.30;1.90;;;8.70;99.90;;;;;;494100;241;28467;-74
2023/11/20 07:22:36;;;;;;;9.97;2.47;;;8.70;99.90;;;;;;494115;241;28617;-72
2023/11/20 07:24:38;;;;;;;9.23;2.27;;;8.60;99.90;;;;;;494122;241;28477;-73
2023/11/20 07:26:39;;;;;;;9.97;1.93;;;8.70;99.90;;;;;;494119;241;27980;-74
2023/11/20 07:28:41;;;;;;;15.53;2.27;;;8.70;99.90;;;;;;494133;241;27955;-73
2023/11/20 07:30:43;;;;;;;7.00;2.20;;;8.70;99.90;;;;;;494106;241;27830;-72
2023/11/20 07:32:43;;;;;;;13.53;2.60;;;8.70;99.90;;;;;;493856;241;27945;-72
2023/11/20 07:34:44;;;;;;;9.03;2.40;;;8.70;99.90;;;;;;494087;241;27984;-71
2023/11/20 07:36:45;;;;;;;8.10;2.23;;;8.70;99.90;;;;;;494157;241;27748;-73
2023/11/20 07:38:47;;;;;;;6.80;2.10;;;8.70;99.90;;;;;;494037;241;28053;-72
2023/11/20 07:40:48;;;;;;;11.80;3.30;;;8.70;99.90;;;;;;494036;241;28063;-72
2023/11/20 07:42:49;;;;;;;11.20;2.37;;;8.70;99.90;;;;;;494044;241;27960;-72
2023/11/20 07:44:50;;;;;;;8.93;2.00;;;8.70;99.90;;;;;;494036;241;27941;-72
2023/11/20 07:46:51;;;;;;;6.33;1.83;;;8.70;99.90;;;;;;494045;241;27919;-73
2023/11/20 07:48:54;;;;;;;8.47;1.70;;;8.70;99.90;;;;;;494017;241;28070;-73
2023/11/20 07:50:54;;;;;;;6.50;1.90;;;8.70;99.90;;;;;;493984;241;28464;-72
2023/11/20 07:52:55;;;;;;;7.47;2.73;;;8.70;99.90;;;;;;494126;241;28695;-72
2023/11/20 07:54:56;;;;;;;12.30;3.00;;;8.70;99.90;;;;;;494157;241;28326;-73
2023/11/20 07:56:58;;;;;;;9.03;3.20;;;8.70;99.90;;;;;;494116;241;28467;-72
2023/11/20 07:58:59;;;;;;;15.40;13.53;;;8.70;99.90;;;;;;494107;241;28435;-73
2023/11/20 08:01:00;;;;;;;11.07;5.90;;;8.70;99.90;;;;;;494004;241;27975;-72
2023/11/20 08:03:01;;;;;;;11.37;9.43;;;8.70;99.90;;;;;;494074;241;27849;-73
2023/11/20 08:05:05;;;;;;;11.20;5.97;;;8.80;99.90;;;;;;494055;241;27982;-73
2023/11/20 08:07:04;;;;;;;10.13;4.20;;;8.80;99.90;;;;;;493887;241;28411;-74
2023/11/20 08:09:09;;;;;;;6.60;4.00;;;8.80;99.90;;;;;;494119;241;27823;-72
2023/11/20 08:11:06;;;;;;;7.20;2.57;;;8.80;99.90;;;;;;493831;241;27962;-72
2023/11/20 08:13:08;;;;;;;6.87;2.80;;;8.80;99.90;;;;;;494059;241;27979;-73
2023/11/20 08:15:11;;;;;;;7.10;2.60;;;8.90;99.90;;;;;;494060;241;27946;-72
2023/11/20 08:17:10;;;;;;;6.30;1.90;;;8.90;99.90;;;;;;493925;241;27978;-72
2023/11/20 08:19:12;;;;;;;5.90;1.77;;;8.90;99.90;;;;;;494038;241;27468;-73
2023/11/20 08:21:13;;;;;;;3.57;1.70;;;8.90;99.90;;;;;;494088;241;28446;-73
2023/11/20 08:23:14;;;;;;;8.70;2.10;;;9.00;99.90;;;;;;494043;241;28389;-73
2023/11/20 08:25:15;;;;;;;5.13;1.77;;;8.90;99.90;;;;;;493999;241;28487;-72
2023/11/20 08:27:17;;;;;;;4.33;1.50;;;8.90;99.90;;;;;;494015;241;28368;-72
2023/11/20 08:29:19;;;;;;;3.17;1.47;;;8.90;99.90;;;;;;493935;241;28617;-72
2023/11/20 08:31:19;;;;;;;7.80;1.57;;;8.90;99.90;;;;;;494095;241;28270;-72
2023/11/20 08:33:20;;;;;;;4.87;1.80;;;8.80;99.90;;;;;;494095;241;28073;-73
2023/11/20 08:35:21;;;;;;;4.53;1.50;;;8.80;99.90;;;;;;494119;241;27949;-72
2023/11/20 08:37:23;;;;;;;3.27;2.23;;;8.80;99.90;;;;;;494115;237;27871;-72
2023/11/20 08:39:31;;;;;;;2.23;1.47;;;8.80;99.90;;;;;;494068;241;27986;-72
2023/11/20 08:41:25;;;;;;;6.80;1.93;;;8.80;99.90;;;;;;493519;241;27812;-73
2023/11/20 08:43:27;;;;;;;6.17;1.70;;;8.70;99.90;;;;;;494164;241;27869;-73
2023/11/20 08:45:28;;;;;;;4.20;1.63;;;8.80;99.90;;;;;;494100;241;27987;-72
2023/11/20 08:47:29;;;;;;;3.10;1.70;;;8.80;99.90;;;;;;494097;241;27738;-73
2023/11/20 08:49:30;;;;;;;3.53;1.40;;;8.80;99.90;;;;;;494064;241;27983;-72
2023/11/20 08:51:31;;;;;;;7.63;2.60;;;8.80;99.90;;;;;;494139;237;28436;-72
2023/11/20 08:53:33;;;;;;;7.27;1.53;;;8.80;99.90;;;;;;494128;238;28232;-72
2023/11/20 08:55:35;;;;;;;5.57;2.47;;;8.80;99.90;;;;;;494138;241;28385;-72
2023/11/20 08:57:35;;;;;;;5.10;1.90;;;8.80;99.90;;;;;;494069;241;28626;-73
2023/11/20 08:59:36;;;;;;;6.93;2.80;;;8.90;99.90;;;;;;494001;241;27870;-73
2023/11/20 09:01:38;;;;;;;7.93;2.20;;;8.90;99.90;;;;;;493991;241;28061;-72
2023/11/20 09:03:39;;;;;;;6.67;2.20;;;8.90;99.90;;;;;;494031;241;27740;-72
2023/11/20 09:05:40;;;;;;;6.93;1.50;;;8.90;99.90;;;;;;494026;241;27681;-72
2023/11/20 09:07:41;;;;;;;9.20;2.17;;;9.10;99.90;;;;;;493973;241;27946;-72
2023/11/20 09:09:43;;;;;;;5.50;1.80;;;9.10;99.90;;;;;;494142;241;27940;-73
2023/11/20 09:11:45;;;;;;;8.33;2.13;;;9.20;99.90;;;;;;494026;241;27811;-73
2023/11/20 09:13:45;;;;;;;8.57;2.10;;;9.20;99.90;;;;;;494037;241;28058;-73
2023/11/20 09:15:46;;;;;;;10.90;2.10;;;9.20;99.90;;;;;;494142;241;28663;-73
2023/11/20 09:17:48;;;;;;;6.90;2.13;;;9.30;99.90;;;;;;494074;241;27869;-72
2023/11/20 09:19:49;;;;;;;10.20;1.90;;;9.40;99.90;;;;;;494107;241;28070;-72
2023/11/20 09:21:50;;;;;;;3.73;1.50;;;9.30;99.90;;;;;;494110;241;27671;-73
2023/11/20 09:23:51;;;;;;;3.77;2.57;;;9.30;99.90;;;;;;494036;241;27841;-72
2023/11/20 09:25:53;;;;;;;12.87;6.47;;;9.30;99.90;;;;;;494052;241;28466;-74
2023/11/20 09:27:54;;;;;;;8.43;3.60;;;9.20;99.90;;;;;;494045;241;28576;-73
2023/11/20 09:29:56;;;;;;;8.03;3.30;;;9.20;99.90;;;;;;493986;241;28342;-73
2023/11/20 09:31:56;;;;;;;6.97;2.90;;;9.30;99.90;;;;;;494052;241;28390;-72
2023/11/20 09:33:59;;;;;;;7.80;2.93;;;9.30;99.90;;;;;;494103;241;28207;-73
2023/11/20 09:35:59;;;;;;;8.50;3.10;;;9.40;99.90;;;;;;493908;241;28113;-73
2023/11/20 09:38:00;;;;;;;5.27;2.23;;;9.40;99.90;;;;;;494018;241;27815;-72
2023/11/20 09:40:04;;;;;;;6.23;2.17;;;9.40;99.90;;;;;;493998;241;27545;-72
2023/11/20 09:42:03;;;;;;;11.60;2.03;;;9.40;99.90;;;;;;493817;241;27907;-72
2023/11/20 09:44:05;;;;;;;7.77;2.20;;;9.30;99.90;;;;;;494047;241;28067;-72
2023/11/20 09:46:08;;;;;;;7.17;1.87;;;9.30;99.90;;;;;;494004;241;27993;-73
2023/11/20 09:48:07;;;;;;;6.20;1.60;;;9.20;99.90;;;;;;493807;241;28062;-73
2023/11/20 09:50:10;;;;;;;4.30;1.50;;;9.20;99.90;;;;;;494044;241;28037;-73
2023/11/20 09:52:09;;;;;;;5.00;2.13;;;9.30;99.90;;;;;;493838;241;28338;-74
2023/11/20 09:54:10;;;;;;;3.30;1.57;;;9.30;99.90;;;;;;494042;241;28086;-72
2023/11/20 09:56:13;;;;;;;5.90;1.87;;;9.50;99.90;;;;;;494057;241;27920;-73
2023/11/20 09:58:13;;;;;;;6.40;1.77;;;9.60;99.90;;;;;;494010;241;27931;-72
2023/11/20 10:00:17;;;;;;;7.07;2.10;;;9.60;99.90;;;;;;494089;241;27983;-72
2023/11/20 10:02:15;;;;;;;4.90;1.60;;;9.50;99.90;;;;;;493892;241;28342;-73
2023/11/20 10:04:16;;;;;;;9.07;2.80;;;9.50;99.90;;;;;;494124;241;28420;-72
2023/11/20 10:06:18;;;;;;;6.43;1.47;;;9.50;99.90;;;;;;494136;241;28089;-73
2023/11/20 10:08:19;;;;;;;5.40;2.37;;;9.50;99.90;;;;;;494138;241;28557;-74
2023/11/20 10:10:20;;;;;;;6.00;1.70;;;9.50;99.90;;;;;;494056;241;28430;-73
2023/11/20 10:12:22;;;;;;;7.40;1.70;;;9.40;99.90;;;;;;494078;241;27993;-73
2023/11/20 10:14:23;;;;;;;8.00;2.00;;;9.30;99.90;;;;;;494047;239;27961;-72
2023/11/20 10:16:26;;;;;;;3.50;2.00;;;9.40;99.90;;;;;;494159;241;27993;-72
2023/11/20 10:18:26;;;;;;;5.93;1.50;;;9.30;99.90;;;;;;493973;241;28104;-72
2023/11/20 10:20:26;;;;;;;8.10;2.13;;;9.40;99.90;;;;;;494087;241;28081;-72
2023/11/20 10:22:28;;;;;;;4.57;1.60;;;9.40;99.90;;;;;;494126;241;27637;-73
2023/11/20 10:24:29;;;;;;;9.67;1.93;;;9.40;99.90;;;;;;494122;237;28024;-72
2023/11/20 10:26:30;;;;;;;5.33;1.73;;;9.30;99.90;;;;;;494015;241;28242;-72
2023/11/20 10:28:31;;;;;;;3.83;1.60;;;9.30;99.90;;;;;;494030;241;27985;-75
2023/11/20 10:30:33;;;;;;;3.50;1.60;;;9.30;99.90;;;;;;494130;241;27968;-72
2023/11/20 10:32:34;;;;;;;5.70;1.80;;;9.30;99.90;;;;;;494141;241;28138;-73
2023/11/20 10:34:36;;;;;;;7.60;1.73;;;9.30;99.90;;;;;;494156;241;28162;-73